createdAt,value
2019-04-14T00:01:09.231Z,100873.69
2019-04-14T00:02:51.869Z,100879.36
2019-04-14T00:04:31.348Z,100880.34
2019-04-14T00:06:06.962Z,100879.82
2019-04-14T00:07:42.759Z,100882.08
2019-04-14T00:09:20.576Z,100878.70
2019-04-14T00:10:55.507Z,100879.49
2019-04-14T00:12:31.572Z,100876.11
2019-04-14T00:14:07.419Z,100872.94
2019-04-14T00:15:46.749Z,100876.06
2019-04-14T00:17:19.448Z,100869.17
2019-04-14T00:18:55.462Z,100875.07
2019-04-14T00:20:31.451Z,100874.08
2019-04-14T00:22:07.294Z,100874.83
2019-04-14T00:23:43.486Z,100875.23
2019-04-14T00:25:19.471Z,100878.47
2019-04-14T00:26:55.204Z,100873.70
2019-04-14T00:28:31.852Z,100878.29
2019-04-14T00:30:08.244Z,100876.52
2019-04-14T00:31:43.369Z,100873.12
2019-04-14T00:33:19.646Z,100877.69
2019-04-14T00:35:06.087Z,100876.61
2019-04-14T00:37:01.176Z,100875.55
2019-04-14T00:38:39.120Z,100866.99
2019-04-14T00:40:23.609Z,100874.61
2019-04-14T00:42:14.862Z,100874.39
2019-04-14T00:43:57.758Z,100869.64
2019-04-14T00:45:45.250Z,100867.17
2019-04-14T00:47:18.055Z,100867.84
2019-04-14T00:48:53.946Z,100868.44
2019-04-14T00:50:29.765Z,100863.05
2019-04-14T00:52:05.798Z,100859.66
2019-04-14T00:53:40.718Z,100860.61
2019-04-14T00:55:16.057Z,100861.30
2019-04-14T00:56:51.951Z,100851.36
2019-04-14T00:58:27.921Z,100859.94
2019-04-14T01:00:03.856Z,100854.03
2019-04-14T01:01:39.432Z,100853.25
2019-04-14T01:03:15.342Z,100857.09
2019-04-14T01:04:51.345Z,100859.05
2019-04-14T01:06:27.285Z,100855.97
2019-04-14T01:08:03.132Z,100855.91
2019-04-14T01:09:39.073Z,100852.84
2019-04-14T01:11:14.386Z,100857.34
2019-04-14T01:12:49.662Z,100851.41
2019-04-14T01:14:25.551Z,100853.13
2019-04-14T01:16:07.185Z,100853.79
2019-04-14T01:17:37.371Z,100853.68
2019-04-14T01:19:13.379Z,100852.95
2019-04-14T01:20:49.200Z,100852.30
2019-04-14T01:22:24.909Z,100848.70
2019-04-14T01:24:00.954Z,100851.56
2019-04-14T01:25:36.802Z,100846.88
2019-04-14T01:27:12.486Z,100850.33
2019-04-14T01:28:48.200Z,100840.98
2019-04-14T01:30:24.053Z,100845.28
2019-04-14T01:31:58.658Z,100841.68
2019-04-14T01:33:33.711Z,100842.17
2019-04-14T01:35:09.541Z,100844.48
2019-04-14T01:36:45.236Z,100845.39
2019-04-14T01:38:21.109Z,100839.67
2019-04-14T01:39:56.639Z,100836.61
2019-04-14T01:41:31.152Z,100837.69
2019-04-14T01:43:08.083Z,100841.98
2019-04-14T01:44:43.865Z,100841.14
2019-04-14T01:46:24.658Z,100844.86
2019-04-14T01:47:55.287Z,100847.08
2019-04-14T01:49:31.079Z,100853.87
2019-04-14T01:51:22.457Z,100849.92
2019-04-14T01:53:16.161Z,100845.38
2019-04-14T01:55:11.146Z,100847.50
2019-04-14T01:57:13.466Z,100851.25
2019-04-14T01:58:51.305Z,100852.86
2019-04-14T02:00:38.160Z,100855.88
2019-04-14T02:02:16.265Z,100854.03
2019-04-14T02:03:51.914Z,100847.73
2019-04-14T02:05:27.772Z,100854.34
2019-04-14T02:07:03.833Z,100850.33
2019-04-14T02:08:39.360Z,100856.48
2019-04-14T02:10:15.113Z,100852.55
2019-04-14T02:11:50.779Z,100846.20
2019-04-14T02:13:26.728Z,100848.88
2019-04-14T02:15:02.615Z,100854.53
2019-04-14T02:16:41.941Z,100852.76
2019-04-14T02:18:14.245Z,100855.42
2019-04-14T02:19:50.198Z,100857.30
2019-04-14T02:21:25.863Z,100857.86
2019-04-14T02:23:01.674Z,100855.03
2019-04-14T02:24:37.472Z,100858.28
2019-04-14T02:26:13.218Z,100845.73
2019-04-14T02:27:47.797Z,100848.11
2019-04-14T02:29:23.242Z,100857.30
2019-04-14T02:31:10.359Z,100860.83
2019-04-14T02:34:39.182Z,100860.95
2019-04-14T02:37:54.467Z,100854.59
2019-04-14T02:41:03.048Z,100858.53
2019-04-14T02:44:34.268Z,100867.63
2019-04-14T02:45:55.826Z,100859.91
2019-04-14T02:47:48.026Z,100864.55
2019-04-14T02:49:08.187Z,100859.43
2019-04-14T02:52:19.733Z,100861.75
2019-04-14T02:54:07.218Z,100862.37
2019-04-14T02:55:23.500Z,100859.11
2019-04-14T02:58:47.952Z,100860.41
2019-04-14T03:00:31.763Z,100869.38
2019-04-14T03:02:09.694Z,100865.62
2019-04-14T03:05:05.589Z,100863.87
2019-04-14T03:06:41.173Z,100871.77
2019-04-14T03:08:16.761Z,100870.69
2019-04-14T03:10:05.244Z,100871.67
2019-04-14T03:13:21.170Z,100870.64
2019-04-14T03:14:50.026Z,100875.89
2019-04-14T03:16:23.438Z,100876.09
2019-04-14T03:22:04.872Z,100880.04
2019-04-14T03:23:44.194Z,100870.69
2019-04-14T03:25:27.732Z,100875.09
2019-04-14T03:27:25.004Z,100870.65
2019-04-14T03:29:08.839Z,100864.66
2019-04-14T03:32:39.514Z,100873.22
2019-04-14T03:38:52.943Z,100871.29
2019-04-14T03:40:28.581Z,100871.04
2019-04-14T03:42:00.490Z,100870.59
2019-04-14T03:44:07.176Z,100870.12
2019-04-14T03:45:16.033Z,100871.84
2019-04-14T03:46:55.407Z,100870.31
2019-04-14T03:51:48.602Z,100870.29
2019-04-14T03:53:22.163Z,100875.38
2019-04-14T03:54:44.132Z,100870.96
2019-04-14T03:56:51.227Z,100874.66
2019-04-14T03:58:27.131Z,100877.33
2019-04-14T04:00:03.208Z,100872.20
2019-04-14T04:01:39.135Z,100880.19
2019-04-14T04:03:15.174Z,100878.69
2019-04-14T04:04:51.199Z,100877.63
2019-04-14T04:06:27.086Z,100878.69
2019-04-14T04:08:02.786Z,100881.90
2019-04-14T04:10:01.114Z,100879.92
2019-04-14T04:11:36.640Z,100876.98
2019-04-14T04:13:12.591Z,100880.41
2019-04-14T04:14:48.465Z,100880.70
2019-04-14T04:16:46.207Z,100880.11
2019-04-14T04:18:24.180Z,100882.64
2019-04-14T04:20:11.030Z,100881.20
2019-04-14T04:22:17.196Z,100875.49
2019-04-14T04:23:56.134Z,100875.05
2019-04-14T04:25:39.995Z,100880.81
2019-04-14T04:27:28.736Z,100880.26
2019-04-14T04:29:20.368Z,100881.80
2019-04-14T04:31:00.321Z,100878.03
2019-04-14T04:32:53.697Z,100876.95
2019-04-14T04:34:34.125Z,100880.69
2019-04-14T04:36:18.175Z,100877.64
2019-04-14T04:37:56.754Z,100882.53
2019-04-14T04:39:38.584Z,100884.09
2019-04-14T04:41:14.615Z,100881.73
2019-04-14T04:42:50.512Z,100879.12
2019-04-14T04:44:25.297Z,100880.83
2019-04-14T04:46:00.640Z,100881.89
2019-04-14T04:47:36.284Z,100889.23
2019-04-14T04:49:16.502Z,100892.02
2019-04-14T04:50:47.780Z,100892.02
2019-04-14T04:52:23.650Z,100892.08
2019-04-14T04:53:59.462Z,100890.47
2019-04-14T04:55:35.143Z,100891.84
2019-04-14T04:57:11.283Z,100892.69
2019-04-14T04:58:46.497Z,100896.52
2019-04-14T05:00:22.194Z,100898.02
2019-04-14T05:01:58.052Z,100902.48
2019-04-14T05:03:33.958Z,100899.77
2019-04-14T05:06:07.345Z,100899.23
2019-04-14T05:07:42.636Z,100899.05
2019-04-14T05:09:23.127Z,100899.61
2019-04-14T05:11:04.023Z,100903.94
2019-04-14T05:12:43.585Z,100903.09
2019-04-14T05:14:26.218Z,100906.41
2019-04-14T05:16:02.359Z,100904.59
2019-04-14T05:17:37.308Z,100910.43
2019-04-14T05:19:21.857Z,100908.07
2019-04-14T05:20:48.939Z,100912.76
2019-04-14T05:22:24.728Z,100907.32
2019-04-14T05:24:00.563Z,100911.09
2019-04-14T05:25:36.495Z,100908.46
2019-04-14T05:27:12.409Z,100908.35
2019-04-14T05:28:48.358Z,100908.05
2019-04-14T05:30:24.312Z,100913.94
2019-04-14T05:32:00.126Z,100915.11
2019-04-14T05:33:36.023Z,100915.80
2019-04-14T05:35:11.998Z,100913.78
2019-04-14T05:36:47.829Z,100912.70
2019-04-14T05:38:23.621Z,100919.06
2019-04-14T05:39:59.386Z,100911.58
2019-04-14T05:41:35.413Z,100914.17
2019-04-14T05:43:11.328Z,100913.66
2019-04-14T05:44:47.131Z,100913.50
2019-04-14T05:46:22.983Z,100915.52
2019-04-14T05:47:58.834Z,100913.44
2019-04-14T05:49:39.103Z,100913.57
2019-04-14T05:51:11.038Z,100910.02
2019-04-14T05:52:47.091Z,100914.44
2019-04-14T05:54:23.062Z,100913.02
2019-04-14T05:55:59.245Z,100911.44
2019-04-14T05:57:35.182Z,100909.84
2019-04-14T05:59:11.265Z,100913.88
2019-04-14T06:00:47.462Z,100909.89
2019-04-14T06:02:22.333Z,100910.61
2019-04-14T06:03:58.162Z,100910.56
2019-04-14T06:05:34.033Z,100909.59
2019-04-14T06:07:09.391Z,100917.43
2019-04-14T06:08:44.521Z,100912.91
2019-04-14T06:10:19.390Z,100914.80
2019-04-14T06:11:54.156Z,100921.48
2019-04-14T06:13:29.139Z,100919.97
2019-04-14T06:15:04.077Z,100920.17
2019-04-14T06:16:39.298Z,100919.48
2019-04-14T06:18:14.299Z,100917.06
2019-04-14T06:19:49.528Z,100924.19
2019-04-14T06:21:24.534Z,100920.71
2019-04-14T06:22:59.395Z,100924.34
2019-04-14T06:24:34.146Z,100923.23
2019-04-14T06:26:09.178Z,100924.53
2019-04-14T06:27:43.933Z,100922.69
2019-04-14T06:29:18.722Z,100927.41
2019-04-14T06:31:18.636Z,100926.95
2019-04-14T06:32:54.538Z,100930.75
2019-04-14T06:34:42.366Z,100933.00
2019-04-14T06:36:29.433Z,100931.87
2019-04-14T06:38:06.662Z,100936.13
2019-04-14T06:39:44.510Z,100931.26
2019-04-14T06:41:20.284Z,100932.88
2019-04-14T06:42:55.319Z,100932.09
2019-04-14T06:44:30.093Z,100937.69
2019-04-14T06:46:04.938Z,100931.87
2019-04-14T06:47:39.734Z,100933.48
2019-04-14T06:49:14.506Z,100939.90
2019-04-14T06:50:49.617Z,100934.20
2019-04-14T06:52:24.405Z,100936.58
2019-04-14T06:53:59.205Z,100936.89
2019-04-14T06:55:34.257Z,100940.08
2019-04-14T06:57:09.002Z,100938.11
2019-04-14T06:58:43.784Z,100936.80
2019-04-14T07:00:18.848Z,100939.25
2019-04-14T07:01:53.877Z,100939.02
2019-04-14T07:03:28.641Z,100937.52
2019-04-14T07:05:03.757Z,100941.00
2019-04-14T07:06:38.796Z,100944.73
2019-04-14T07:08:13.572Z,100944.77
2019-04-14T07:09:48.826Z,100941.58
2019-04-14T07:11:23.480Z,100939.38
2019-04-14T07:13:01.806Z,100941.28
2019-04-14T07:14:36.184Z,100940.82
2019-04-14T07:16:10.562Z,100943.93
2019-04-14T07:17:45.171Z,100947.24
2019-04-14T07:19:19.623Z,100951.76
2019-04-14T07:20:54.229Z,100948.06
2019-04-14T07:22:28.660Z,100955.39
2019-04-14T07:24:03.337Z,100948.08
2019-04-14T07:25:38.014Z,100951.44
2019-04-14T07:27:12.477Z,100953.05
2019-04-14T07:28:56.705Z,100951.14
2019-04-14T07:30:42.317Z,100950.55
2019-04-14T07:32:34.688Z,100953.66
2019-04-14T07:34:43.565Z,100953.20
2019-04-14T07:36:35.648Z,100949.70
2019-04-14T07:38:18.385Z,100952.22
2019-04-14T07:40:06.989Z,100952.27
2019-04-14T07:41:50.686Z,100950.67
2019-04-14T07:43:34.530Z,100955.61
2019-04-14T07:45:14.259Z,100950.78
2019-04-14T07:47:17.009Z,100951.05
2019-04-14T07:49:01.391Z,100946.75
2019-04-14T07:50:46.325Z,100949.62
2019-04-14T07:52:43.144Z,100952.66
2019-04-14T07:54:36.957Z,100949.34
2019-04-14T07:56:24.303Z,100950.44
2019-04-14T07:58:18.341Z,100950.27
2019-04-14T08:00:18.272Z,100952.37
2019-04-14T08:02:00.693Z,100953.87
2019-04-14T08:03:53.389Z,100953.81
2019-04-14T08:05:31.397Z,100964.83
2019-04-14T08:07:06.553Z,100964.22
2019-04-14T08:08:41.512Z,100961.03
2019-04-14T08:10:17.350Z,100957.41
2019-04-14T08:11:52.149Z,100967.58
2019-04-14T08:13:26.980Z,100963.48
2019-04-14T08:15:01.758Z,100962.96
2019-04-14T08:16:36.990Z,100970.63
2019-04-14T08:18:11.994Z,100971.41
2019-04-14T08:19:46.779Z,100967.20
2019-04-14T08:21:22.129Z,100966.25
2019-04-14T08:22:58.066Z,100964.35
2019-04-14T08:24:33.137Z,100969.48
2019-04-14T08:26:07.919Z,100971.38
2019-04-14T08:27:42.938Z,100966.03
2019-04-14T08:29:17.817Z,100963.41
2019-04-14T08:30:52.627Z,100973.23
2019-04-14T08:32:27.401Z,100969.53
2019-04-14T08:34:02.194Z,100969.59
2019-04-14T08:35:36.971Z,100973.41
2019-04-14T08:37:11.774Z,100971.50
2019-04-14T08:38:46.547Z,100972.03
2019-04-14T08:40:21.806Z,100967.14
2019-04-14T08:42:22.369Z,100965.77
2019-04-14T08:44:20.001Z,100966.81
2019-04-14T08:46:13.016Z,100956.73
2019-04-14T08:48:13.988Z,100948.86
2019-04-14T08:49:55.185Z,100956.28
2019-04-14T08:51:36.822Z,100955.77
2019-04-14T08:53:20.645Z,100962.15
2019-04-14T08:55:01.828Z,100973.97
2019-04-14T08:56:49.761Z,100970.33
2019-04-14T08:58:47.145Z,100968.91
2019-04-14T09:00:31.029Z,100969.20
2019-04-14T09:02:16.723Z,100973.03
2019-04-14T09:04:04.696Z,100975.36
2019-04-14T09:05:44.391Z,100977.29
2019-04-14T09:07:41.215Z,100976.13
2019-04-14T09:09:25.456Z,100983.08
2019-04-14T09:11:01.880Z,100979.90
2019-04-14T09:12:39.015Z,100978.06
2019-04-14T09:14:14.024Z,100986.23
2019-04-14T09:15:48.828Z,100981.14
2019-04-14T09:17:24.217Z,100988.40
2019-04-14T09:19:07.508Z,100985.69
2019-04-14T09:20:35.731Z,100991.75
2019-04-14T09:22:10.533Z,100987.61
2019-04-14T09:23:45.300Z,100993.40
2019-04-14T09:25:20.323Z,100992.55
2019-04-14T09:26:55.358Z,100993.36
2019-04-14T09:28:30.158Z,100997.29
2019-04-14T09:30:05.847Z,100995.81
2019-04-14T09:31:40.845Z,100996.80
2019-04-14T09:33:15.607Z,101001.30
2019-04-14T09:34:50.705Z,101001.42
2019-04-14T09:36:25.476Z,100994.00
2019-04-14T09:38:00.732Z,100998.50
2019-04-14T09:39:35.765Z,100992.44
2019-04-14T09:41:11.031Z,100995.65
2019-04-14T09:42:45.818Z,101000.23
2019-04-14T09:44:20.857Z,100997.66
2019-04-14T09:45:55.902Z,100997.73
2019-04-14T09:47:31.131Z,101000.14
2019-04-14T09:49:06.233Z,101001.65
2019-04-14T09:50:41.273Z,100998.39
2019-04-14T09:52:16.069Z,100999.52
2019-04-14T09:53:50.958Z,101000.75
2019-04-14T09:55:25.746Z,101002.19
2019-04-14T09:57:00.519Z,100998.05
2019-04-14T09:58:35.363Z,101000.91
2019-04-14T10:00:13.589Z,101000.70
2019-04-14T10:01:49.035Z,100999.72
2019-04-14T10:03:25.257Z,101001.06
2019-04-14T10:05:00.264Z,100997.31
2019-04-14T10:06:35.072Z,101000.78
2019-04-14T10:08:09.932Z,100998.66
2019-04-14T10:09:45.033Z,100996.11
2019-04-14T10:11:20.089Z,100993.31
2019-04-14T10:12:54.976Z,100995.23
2019-04-14T10:14:29.780Z,101003.00
2019-04-14T10:16:04.560Z,101005.38
2019-04-14T10:17:39.581Z,101000.95
2019-04-14T10:19:14.465Z,101005.36
2019-04-14T10:20:49.242Z,101010.56
2019-04-14T10:22:33.385Z,101004.61
2019-04-14T10:24:00.873Z,101004.27
2019-04-14T10:25:36.215Z,101011.62
2019-04-14T10:27:11.514Z,101014.22
2019-04-14T10:28:46.329Z,101005.61
2019-04-14T10:30:21.452Z,101006.23
2019-04-14T10:31:57.028Z,101004.19
2019-04-14T10:33:31.825Z,101007.50
2019-04-14T10:35:06.804Z,101004.53
2019-04-14T10:36:41.620Z,101004.77
2019-04-14T10:38:16.450Z,101002.50
2019-04-14T10:39:51.238Z,100993.98
2019-04-14T10:41:26.050Z,100996.63
2019-04-14T10:43:01.085Z,100999.72
2019-04-14T10:44:36.124Z,100999.80
2019-04-14T10:46:11.306Z,100997.81
2019-04-14T10:47:46.516Z,101000.73
2019-04-14T10:49:21.362Z,100999.42
2019-04-14T10:50:56.228Z,100992.58
2019-04-14T10:52:31.007Z,100988.86
2019-04-14T10:54:06.120Z,100988.63
2019-04-14T10:55:41.137Z,100992.61
2019-04-14T10:57:15.943Z,100991.33
2019-04-14T10:58:50.961Z,100994.83
2019-04-14T11:00:25.852Z,100994.14
2019-04-14T11:02:00.884Z,100990.08
2019-04-14T11:03:35.762Z,100993.05
2019-04-14T11:05:11.234Z,100994.02
2019-04-14T11:06:56.902Z,100985.39
2019-04-14T11:08:31.682Z,100992.50
2019-04-14T11:10:08.050Z,100994.47
2019-04-14T11:11:43.110Z,100989.92
2019-04-14T11:13:18.144Z,100992.77
2019-04-14T11:14:53.647Z,100989.69
2019-04-14T11:16:28.706Z,100990.00
2019-04-14T11:18:03.771Z,100981.05
2019-04-14T11:19:38.569Z,100984.78
2019-04-14T11:21:13.618Z,100985.81
2019-04-14T11:22:48.733Z,100982.72
2019-04-14T11:24:24.181Z,100988.94
2019-04-14T11:25:59.081Z,100984.12
2019-04-14T11:27:33.893Z,100985.59
2019-04-14T11:29:08.725Z,100987.88
2019-04-14T11:30:43.501Z,100988.86
2019-04-14T11:32:35.982Z,100986.11
2019-04-14T11:34:11.144Z,100987.97
2019-04-14T11:35:53.409Z,100985.39
2019-04-14T11:37:46.866Z,100987.83
2019-04-14T11:39:21.865Z,100982.05
2019-04-14T11:40:58.548Z,100983.16
2019-04-14T11:42:33.075Z,100985.45
2019-04-14T11:44:08.283Z,100982.28
2019-04-14T11:45:42.755Z,100981.56
2019-04-14T11:47:17.573Z,100986.57
2019-04-14T11:48:52.415Z,100978.00
2019-04-14T11:50:26.880Z,100981.91
2019-04-14T11:52:01.305Z,100987.98
2019-04-14T11:53:36.235Z,100990.42
2019-04-14T11:55:11.432Z,100986.26
2019-04-14T11:56:46.355Z,100990.67
2019-04-14T11:58:20.869Z,100995.58
2019-04-14T12:00:04.679Z,100991.33
2019-04-14T12:02:00.425Z,100992.06
2019-04-14T12:03:59.057Z,100997.87
2019-04-14T12:05:58.636Z,101000.41
2019-04-14T12:07:40.363Z,100997.27
2019-04-14T12:09:18.434Z,100997.20
2019-04-14T12:10:53.567Z,100997.95
2019-04-14T12:12:28.635Z,100999.35
2019-04-14T12:14:03.450Z,100993.41
2019-04-14T12:15:37.866Z,100988.14
2019-04-14T12:17:12.255Z,100993.75
2019-04-14T12:18:46.626Z,100994.98
2019-04-14T12:20:21.013Z,100985.41
2019-04-14T12:22:07.447Z,100994.62
2019-04-14T12:23:31.789Z,100997.02
2019-04-14T12:25:07.390Z,100995.39
2019-04-14T12:26:42.152Z,100998.05
2019-04-14T12:28:17.342Z,100990.57
2019-04-14T12:29:52.228Z,101000.91
2019-04-14T12:31:26.889Z,100999.31
2019-04-14T12:33:01.257Z,100997.55
2019-04-14T12:34:35.632Z,100992.30
2019-04-14T12:36:13.016Z,100992.34
2019-04-14T12:37:47.425Z,101002.04
2019-04-14T12:39:24.262Z,100998.55
2019-04-14T12:41:02.033Z,100994.83
2019-04-14T12:42:55.380Z,101001.23
2019-04-14T12:44:43.282Z,101002.06
2019-04-14T12:46:43.210Z,100995.23
2019-04-14T12:48:46.649Z,100989.48
2019-04-14T12:50:34.636Z,100990.25
2019-04-14T12:52:21.276Z,100988.67
2019-04-14T12:53:52.798Z,100988.69
2019-04-14T12:55:27.653Z,100993.22
2019-04-14T12:57:02.441Z,100990.89
2019-04-14T12:58:52.864Z,100989.00
2019-04-14T13:00:40.471Z,100983.02
2019-04-14T13:02:23.592Z,100983.54
2019-04-14T13:03:58.374Z,100983.61
2019-04-14T13:05:33.283Z,100977.68
2019-04-14T13:07:07.749Z,100971.28
2019-04-14T13:08:42.195Z,100980.11
2019-04-14T13:10:17.700Z,100981.47
2019-04-14T13:11:52.225Z,100970.77
2019-04-14T13:13:26.585Z,100974.84
2019-04-14T13:15:02.830Z,100977.28
2019-04-14T13:16:37.448Z,100968.69
2019-04-14T13:18:11.825Z,100978.73
2019-04-14T13:19:46.327Z,100973.42
2019-04-14T13:21:21.273Z,100976.48
2019-04-14T13:22:55.672Z,100974.58
2019-04-14T13:24:30.095Z,100973.31
2019-04-14T13:26:05.314Z,100977.61
2019-04-14T13:27:39.709Z,100962.95
2019-04-14T13:29:14.140Z,100954.39
2019-04-14T13:30:50.030Z,100951.05
2019-04-14T13:32:35.341Z,100948.45
2019-04-14T13:34:00.905Z,100945.98
2019-04-14T13:35:35.357Z,100951.45
2019-04-14T13:37:09.982Z,100953.09
2019-04-14T13:38:44.416Z,100953.77
2019-04-14T13:40:19.323Z,100952.51
2019-04-14T13:41:53.682Z,100955.06
2019-04-14T13:43:28.053Z,100953.52
2019-04-14T13:45:02.450Z,100953.66
2019-04-14T13:46:36.917Z,100946.94
2019-04-14T13:48:11.309Z,100945.66
2019-04-14T13:49:45.684Z,100940.01
2019-04-14T13:51:20.314Z,100947.65
2019-04-14T13:52:54.748Z,100930.31
2019-04-14T13:54:29.129Z,100923.67
2019-04-14T13:56:03.481Z,100921.11
2019-04-14T13:57:37.869Z,100916.97
2019-04-14T13:59:12.336Z,100917.64
2019-04-14T14:00:46.697Z,100920.50
2019-04-14T14:02:21.074Z,100909.38
2019-04-14T14:03:55.756Z,100912.50
2019-04-14T14:05:30.397Z,100905.38
2019-04-14T14:07:05.493Z,100907.92
2019-04-14T14:08:39.858Z,100921.57
2019-04-14T14:10:14.771Z,100923.09
2019-04-14T14:12:14.125Z,100914.81
2019-04-14T14:13:54.108Z,100915.08
2019-04-14T14:15:59.743Z,100915.03
2019-04-14T14:17:59.264Z,100913.59
2019-04-14T14:19:44.778Z,100915.28
2019-04-14T14:21:44.273Z,100917.94
2019-04-14T14:23:27.747Z,100918.52
2019-04-14T14:25:12.100Z,100919.67
2019-04-14T14:26:47.750Z,100915.55
2019-04-14T14:28:22.258Z,100914.20
2019-04-14T14:29:56.689Z,100916.33
2019-04-14T14:31:31.313Z,100916.03
2019-04-14T14:33:05.830Z,100923.56
2019-04-14T14:34:40.202Z,100920.59
2019-04-14T14:36:14.573Z,100915.61
2019-04-14T14:37:48.925Z,100923.61
2019-04-14T14:39:23.320Z,100922.08
2019-04-14T14:40:59.566Z,100920.80
2019-04-14T14:42:33.912Z,100918.09
2019-04-14T14:44:08.277Z,100924.12
2019-04-14T14:45:52.409Z,100924.59
2019-04-14T14:47:29.210Z,100928.00
2019-04-14T14:49:10.259Z,100926.83
2019-04-14T14:50:52.253Z,100931.20
2019-04-14T14:52:26.658Z,100929.47
2019-04-14T14:54:01.541Z,100938.46
2019-04-14T14:55:35.896Z,100938.69
2019-04-14T14:57:10.582Z,100943.40
2019-04-14T14:58:45.481Z,100937.33
2019-04-14T15:00:29.752Z,100933.35
2019-04-14T15:02:04.236Z,100928.73
2019-04-14T15:03:39.090Z,100925.45
2019-04-14T15:05:13.601Z,100929.80
2019-04-14T15:06:47.979Z,100936.05
2019-04-14T15:08:22.420Z,100932.15
2019-04-14T15:09:56.925Z,100927.53
2019-04-14T15:11:31.326Z,100930.50
2019-04-14T15:13:06.238Z,100928.65
2019-04-14T15:14:41.058Z,100928.90
2019-04-14T15:16:15.423Z,100928.77
2019-04-14T15:17:49.957Z,100919.86
2019-04-14T15:19:24.410Z,100917.88
2019-04-14T15:20:59.125Z,100918.37
2019-04-14T15:22:33.493Z,100920.08
2019-04-14T15:24:08.136Z,100916.58
2019-04-14T15:25:42.574Z,100918.25
2019-04-14T15:27:16.934Z,100918.77
2019-04-14T15:28:51.421Z,100915.37
2019-04-14T15:30:25.812Z,100916.17
2019-04-14T15:32:00.632Z,100922.61
2019-04-14T15:33:35.011Z,100920.14
2019-04-14T15:35:11.043Z,100918.44
2019-04-14T15:36:45.415Z,100922.03
2019-04-14T15:38:20.157Z,100921.06
2019-04-14T15:39:54.575Z,100921.69
2019-04-14T15:41:28.960Z,100927.67
2019-04-14T15:43:03.321Z,100932.25
2019-04-14T15:44:38.273Z,100931.11
2019-04-14T15:46:12.911Z,100934.50
2019-04-14T15:47:47.629Z,100930.91
2019-04-14T15:49:22.328Z,100935.97
2019-04-14T15:50:56.682Z,100932.37
2019-04-14T15:52:31.113Z,100934.31
2019-04-14T15:54:06.009Z,100940.95
2019-04-14T15:55:40.441Z,100936.90
2019-04-14T15:57:33.897Z,100938.07
2019-04-14T15:59:15.092Z,100939.84
2019-04-14T16:01:23.965Z,100942.88
2019-04-14T16:03:16.215Z,100949.18
2019-04-14T16:04:56.510Z,100964.31
2019-04-14T16:06:45.300Z,100961.84
2019-04-14T16:08:32.339Z,100962.34
2019-04-14T16:10:15.667Z,100961.24
2019-04-14T16:12:06.436Z,100960.45
2019-04-14T16:13:45.865Z,100962.30
2019-04-14T16:15:42.531Z,100960.87
2019-04-14T16:17:39.135Z,100965.87
2019-04-14T16:19:21.230Z,100962.85
2019-04-14T16:20:55.629Z,100962.95
2019-04-14T16:22:29.990Z,100962.45
2019-04-14T16:24:04.453Z,100969.75
2019-04-14T16:25:47.653Z,100970.34
2019-04-14T16:27:44.517Z,100974.91
2019-04-14T16:29:22.468Z,100977.70
2019-04-14T16:31:04.626Z,100974.28
2019-04-14T16:33:03.121Z,100969.19
2019-04-14T16:34:47.351Z,100969.36
2019-04-14T16:36:21.702Z,100968.67
2019-04-14T16:37:56.355Z,100971.66
2019-04-14T16:39:30.757Z,100967.57
2019-04-14T16:41:05.121Z,100980.09
2019-04-14T16:42:39.474Z,100982.76
2019-04-14T16:44:14.007Z,100987.33
2019-04-14T16:45:48.746Z,100981.56
2019-04-14T16:47:23.466Z,100980.36
2019-04-14T16:48:57.822Z,100981.53
2019-04-14T16:50:32.193Z,100977.41
2019-04-14T16:52:29.429Z,100982.66
2019-04-14T16:54:10.982Z,100988.66
2019-04-14T16:55:55.550Z,100986.52
2019-04-14T16:57:48.055Z,100986.30
2019-04-14T16:59:22.781Z,100985.55
2019-04-14T17:01:03.383Z,100982.09
2019-04-14T17:02:37.829Z,100985.62
2019-04-14T17:04:12.526Z,100991.77
2019-04-14T17:05:47.226Z,100995.44
2019-04-14T17:07:21.589Z,100990.85
2019-04-14T17:08:56.022Z,101000.95
2019-04-14T17:10:30.431Z,101002.13
2019-04-14T17:12:05.207Z,101006.00
2019-04-14T17:13:42.141Z,101001.98
2019-04-14T17:15:41.902Z,101008.16
2019-04-14T17:17:35.357Z,101004.78
2019-04-14T17:19:14.025Z,101006.33
2019-04-14T17:20:58.234Z,101004.36
2019-04-14T17:22:45.923Z,101001.07
2019-04-14T17:24:51.766Z,101001.43
2019-04-14T17:26:41.548Z,101008.34
2019-04-14T17:28:23.451Z,101007.31
2019-04-14T17:30:14.372Z,101009.91
2019-04-14T17:32:07.189Z,101008.05
2019-04-14T17:33:57.681Z,101015.41
2019-04-14T17:35:57.768Z,101010.64
2019-04-14T17:37:44.316Z,101010.97
2019-04-14T17:39:33.482Z,101017.53
2019-04-14T17:41:15.666Z,101026.38
2019-04-14T17:42:55.703Z,101019.80
2019-04-14T17:44:52.064Z,101018.30
2019-04-14T17:46:37.790Z,101026.47
2019-04-14T17:48:31.243Z,101025.70
2019-04-14T17:50:40.134Z,101029.87
2019-04-14T17:52:22.759Z,101032.84
2019-04-14T17:54:29.773Z,101038.23
2019-04-14T17:56:07.163Z,101042.95
2019-04-14T17:57:59.900Z,101036.40
2019-04-14T17:59:40.478Z,101038.19
2019-04-14T18:01:33.151Z,101043.92
2019-04-14T18:03:22.441Z,101040.98
2019-04-14T18:05:04.692Z,101046.41
2019-04-14T18:06:47.990Z,101051.96
2019-04-14T18:08:40.518Z,101052.53
2019-04-14T18:10:19.833Z,101054.42
2019-04-14T18:12:06.801Z,101059.41
2019-04-14T18:13:50.024Z,101060.30
2019-04-14T18:15:31.436Z,101072.30
2019-04-14T18:17:20.127Z,101074.71
2019-04-14T18:19:18.574Z,101075.47
2019-04-14T18:20:56.781Z,101070.41
2019-04-14T18:22:31.505Z,101074.59
2019-04-14T18:24:05.869Z,101079.50
2019-04-14T18:25:40.509Z,101086.91
2019-04-14T18:27:15.243Z,101081.48
2019-04-14T18:29:12.272Z,101087.03
2019-04-14T18:31:01.824Z,101089.69
2019-04-14T18:32:40.837Z,101092.15
2019-04-14T18:34:20.500Z,101092.99
2019-04-14T18:35:59.492Z,101094.56
2019-04-14T18:37:40.758Z,101093.56
2019-04-14T18:39:34.829Z,101092.55
2019-04-14T18:41:15.877Z,101091.50
2019-04-14T18:43:10.536Z,101098.02
2019-04-14T18:44:53.242Z,101096.48
2019-04-14T18:46:45.417Z,101102.47
2019-04-14T18:48:27.915Z,101104.37
2019-04-14T18:50:13.897Z,101102.01
2019-04-14T18:51:57.166Z,101109.64
2019-04-14T18:53:51.212Z,101113.75
2019-04-14T18:55:33.081Z,101116.28
2019-04-14T18:57:33.330Z,101112.17
2019-04-14T18:59:27.870Z,101112.84
2019-04-14T19:01:09.366Z,101112.27
2019-04-14T19:02:44.153Z,101120.62
2019-04-14T19:04:19.175Z,101122.19
2019-04-14T19:05:54.250Z,101120.17
2019-04-14T19:07:29.345Z,101126.31
2019-04-14T19:09:06.247Z,101127.89
2019-04-14T19:10:43.338Z,101131.37
2019-04-14T19:12:37.474Z,101134.40
2019-04-14T19:14:15.547Z,101130.73
2019-04-14T19:15:56.075Z,101129.61
2019-04-14T19:17:44.757Z,101130.74